sensor_id;sensor_type;location;lat;lon;timestamp;pressure;altitude;pressure_sealevel;temperature;humidity
46682;BME280;34101;53.430;-2.224;2023-04-20T00:02:27;102351.90;;;9.23;55.59
46682;BME280;34101;53.430;-2.224;2023-04-20T00:04:54;102348.62;;;9.15;56.19
46682;BME280;34101;53.430;-2.224;2023-04-20T00:07:22;102345.18;;;9.04;56.77
46682;BME280;34101;53.430;-2.224;2023-04-20T00:09:49;102343.81;;;9.10;56.75
46682;BME280;34101;53.430;-2.224;2023-04-20T00:12:16;102341.36;;;8.91;57.99
46682;BME280;34101;53.430;-2.224;2023-04-20T00:14:44;102341.29;;;9.04;57.72
46682;BME280;34101;53.430;-2.224;2023-04-20T00:17:11;102341.38;;;9.05;57.72
46682;BME280;34101;53.430;-2.224;2023-04-20T00:19:38;102338.14;;;9.00;58.09
46682;BME280;34101;53.430;-2.224;2023-04-20T00:22:06;102334.38;;;9.03;57.90
46682;BME280;34101;53.430;-2.224;2023-04-20T00:24:33;102332.41;;;9.02;57.95
46682;BME280;34101;53.430;-2.224;2023-04-20T00:27:01;102331.76;;;8.96;58.36
46682;BME280;34101;53.430;-2.224;2023-04-20T00:29:28;102332.83;;;8.98;58.22
46682;BME280;34101;53.430;-2.224;2023-04-20T00:31:56;102326.11;;;8.96;58.51
46682;BME280;34101;53.430;-2.224;2023-04-20T00:34:23;102326.63;;;8.96;58.55
46682;BME280;34101;53.430;-2.224;2023-04-20T00:36:51;102323.04;;;8.93;58.63
46682;BME280;34101;53.430;-2.224;2023-04-20T00:39:18;102322.12;;;8.86;59.10
46682;BME280;34101;53.430;-2.224;2023-04-20T00:41:46;102323.82;;;8.81;59.34
46682;BME280;34101;53.430;-2.224;2023-04-20T00:44:13;102321.20;;;8.88;59.18
46682;BME280;34101;53.430;-2.224;2023-04-20T00:46:41;102327.22;;;8.83;59.40
46682;BME280;34101;53.430;-2.224;2023-04-20T00:49:08;102325.28;;;8.89;59.29
46682;BME280;34101;53.430;-2.224;2023-04-20T00:51:35;102324.99;;;8.73;59.66
46682;BME280;34101;53.430;-2.224;2023-04-20T00:54:04;102325.64;;;8.81;59.72
46682;BME280;34101;53.430;-2.224;2023-04-20T00:56:31;102320.63;;;8.86;59.65
46682;BME280;34101;53.430;-2.224;2023-04-20T00:58:59;102322.07;;;8.85;59.72
46682;BME280;34101;53.430;-2.224;2023-04-20T01:01:28;102321.51;;;8.88;59.81
46682;BME280;34101;53.430;-2.224;2023-04-20T01:03:55;102315.06;;;8.86;59.98
46682;BME280;34101;53.430;-2.224;2023-04-20T01:06:23;102315.15;;;8.81;60.07
46682;BME280;34101;53.430;-2.224;2023-04-20T01:08:55;102313.17;;;8.79;59.93
46682;BME280;34101;53.430;-2.224;2023-04-20T01:11:22;102310.50;;;8.70;60.78
46682;BME280;34101;53.430;-2.224;2023-04-20T01:13:49;102312.06;;;8.63;60.91
46682;BME280;34101;53.430;-2.224;2023-04-20T01:16:17;102306.67;;;8.64;61.21
46682;BME280;34101;53.430;-2.224;2023-04-20T01:18:46;102310.85;;;8.64;61.25
46682;BME280;34101;53.430;-2.224;2023-04-20T01:21:15;102306.89;;;8.57;61.42
46682;BME280;34101;53.430;-2.224;2023-04-20T01:23:43;102302.44;;;8.65;61.22
46682;BME280;34101;53.430;-2.224;2023-04-20T01:26:13;102306.49;;;8.65;61.18
46682;BME280;34101;53.430;-2.224;2023-04-20T01:28:41;102301.40;;;8.61;61.37
46682;BME280;34101;53.430;-2.224;2023-04-20T01:31:09;102302.58;;;8.46;62.07
46682;BME280;34101;53.430;-2.224;2023-04-20T01:33:38;102301.13;;;8.52;61.98
46682;BME280;34101;53.430;-2.224;2023-04-20T01:36:07;102301.11;;;8.51;62.05
46682;BME280;34101;53.430;-2.224;2023-04-20T01:38:35;102302.51;;;8.50;62.13
46682;BME280;34101;53.430;-2.224;2023-04-20T01:41:05;102295.63;;;8.41;62.43
46682;BME280;34101;53.430;-2.224;2023-04-20T01:43:34;102292.27;;;8.47;62.40
46682;BME280;34101;53.430;-2.224;2023-04-20T01:46:02;102294.80;;;8.49;62.31
46682;BME280;34101;53.430;-2.224;2023-04-20T01:48:30;102292.95;;;8.37;62.72
46682;BME280;34101;53.430;-2.224;2023-04-20T01:50:58;102295.47;;;8.43;62.47
46682;BME280;34101;53.430;-2.224;2023-04-20T01:53:25;102292.15;;;8.32;63.00
46682;BME280;34101;53.430;-2.224;2023-04-20T01:55:53;102293.93;;;8.46;62.63
46682;BME280;34101;53.430;-2.224;2023-04-20T01:58:20;102287.85;;;8.46;62.58
46682;BME280;34101;53.430;-2.224;2023-04-20T02:00:47;102290.75;;;8.47;62.61
46682;BME280;34101;53.430;-2.224;2023-04-20T02:03:15;102291.33;;;8.42;62.76
46682;BME280;34101;53.430;-2.224;2023-04-20T02:05:43;102289.49;;;8.36;62.92
46682;BME280;34101;53.430;-2.224;2023-04-20T02:08:10;102288.26;;;8.41;62.94
46682;BME280;34101;53.430;-2.224;2023-04-20T02:10:37;102283.12;;;8.42;62.84
46682;BME280;34101;53.430;-2.224;2023-04-20T02:13:04;102286.34;;;8.37;63.08
46682;BME280;34101;53.430;-2.224;2023-04-20T02:15:32;102281.44;;;8.28;63.27
46682;BME280;34101;53.430;-2.224;2023-04-20T02:17:59;102282.77;;;8.34;63.13
46682;BME280;34101;53.430;-2.224;2023-04-20T02:20:26;102282.23;;;8.35;63.08
46682;BME280;34101;53.430;-2.224;2023-04-20T02:22:54;102282.50;;;8.37;63.10
46682;BME280;34101;53.430;-2.224;2023-04-20T02:25:21;102284.60;;;8.25;63.48
46682;BME280;34101;53.430;-2.224;2023-04-20T02:27:50;102279.85;;;8.32;63.37
46682;BME280;34101;53.430;-2.224;2023-04-20T02:30:18;102282.83;;;8.34;63.32
46682;BME280;34101;53.430;-2.224;2023-04-20T02:32:46;102278.55;;;8.32;63.51
46682;BME280;34101;53.430;-2.224;2023-04-20T02:35:14;102275.73;;;8.32;63.43
46682;BME280;34101;53.430;-2.224;2023-04-20T02:37:42;102279.79;;;8.26;63.72
46682;BME280;34101;53.430;-2.224;2023-04-20T02:40:10;102282.96;;;8.28;63.75
46682;BME280;34101;53.430;-2.224;2023-04-20T02:42:38;102279.45;;;8.28;63.72
46682;BME280;34101;53.430;-2.224;2023-04-20T02:45:07;102281.94;;;8.28;63.65
46682;BME280;34101;53.430;-2.224;2023-04-20T02:47:36;102280.16;;;8.21;64.10
46682;BME280;34101;53.430;-2.224;2023-04-20T02:50:04;102282.14;;;8.25;64.00
46682;BME280;34101;53.430;-2.224;2023-04-20T02:52:31;102281.01;;;8.25;63.94
46682;BME280;34101;53.430;-2.224;2023-04-20T02:54:59;102278.78;;;8.18;64.09
46682;BME280;34101;53.430;-2.224;2023-04-20T02:57:26;102284.37;;;8.16;64.23
46682;BME280;34101;53.430;-2.224;2023-04-20T02:59:55;102286.10;;;8.12;64.34
46682;BME280;34101;53.430;-2.224;2023-04-20T03:02:23;102288.37;;;8.10;64.62
46682;BME280;34101;53.430;-2.224;2023-04-20T03:04:50;102284.78;;;8.09;64.62
46682;BME280;34101;53.430;-2.224;2023-04-20T03:07:23;102285.99;;;8.09;64.77
46682;BME280;34101;53.430;-2.224;2023-04-20T03:09:51;102282.37;;;8.11;64.66
46682;BME280;34101;53.430;-2.224;2023-04-20T03:12:18;102277.29;;;8.09;64.71
46682;BME280;34101;53.430;-2.224;2023-04-20T03:14:46;102271.93;;;8.04;64.93
46682;BME280;34101;53.430;-2.224;2023-04-20T03:17:13;102272.67;;;8.06;64.73
46682;BME280;34101;53.430;-2.224;2023-04-20T03:19:40;102272.42;;;8.04;64.88
46682;BME280;34101;53.430;-2.224;2023-04-20T03:22:08;102279.06;;;8.03;64.89
46682;BME280;34101;53.430;-2.224;2023-04-20T03:24:36;102279.38;;;8.03;64.89
46682;BME280;34101;53.430;-2.224;2023-04-20T03:27:04;102276.88;;;7.99;65.04
46682;BME280;34101;53.430;-2.224;2023-04-20T03:29:31;102279.44;;;8.01;65.05
46682;BME280;34101;53.430;-2.224;2023-04-20T03:31:59;102287.57;;;8.00;65.07
46682;BME280;34101;53.430;-2.224;2023-04-20T03:34:27;102286.72;;;7.94;65.42
46682;BME280;34101;53.430;-2.224;2023-04-20T03:36:54;102287.02;;;7.90;65.63
46682;BME280;34101;53.430;-2.224;2023-04-20T03:39:22;102282.95;;;7.92;65.68
46682;BME280;34101;53.430;-2.224;2023-04-20T03:41:49;102286.51;;;7.88;65.88
46682;BME280;34101;53.430;-2.224;2023-04-20T03:44:17;102283.75;;;7.79;66.39
46682;BME280;34101;53.430;-2.224;2023-04-20T03:46:44;102282.69;;;7.85;66.35
46682;BME280;34101;53.430;-2.224;2023-04-20T03:49:12;102278.81;;;7.85;66.40
46682;BME280;34101;53.430;-2.224;2023-04-20T03:51:40;102273.92;;;7.82;66.49
46682;BME280;34101;53.430;-2.224;2023-04-20T03:54:08;102279.17;;;7.86;66.41
46682;BME280;34101;53.430;-2.224;2023-04-20T03:56:35;102279.57;;;7.87;66.36
46682;BME280;34101;53.430;-2.224;2023-04-20T03:59:02;102280.41;;;7.86;66.32
46682;BME280;34101;53.430;-2.224;2023-04-20T04:01:31;102275.77;;;7.85;66.40
46682;BME280;34101;53.430;-2.224;2023-04-20T04:03:59;102272.71;;;7.85;66.33
46682;BME280;34101;53.430;-2.224;2023-04-20T04:06:26;102267.67;;;7.81;66.16
46682;BME280;34101;53.430;-2.224;2023-04-20T04:08:54;102262.28;;;7.79;66.34
46682;BME280;34101;53.430;-2.224;2023-04-20T04:11:21;102261.63;;;7.80;66.15
46682;BME280;34101;53.430;-2.224;2023-04-20T04:13:48;102261.35;;;7.81;66.11
46682;BME280;34101;53.430;-2.224;2023-04-20T04:16:15;102258.15;;;7.83;65.94
46682;BME280;34101;53.430;-2.224;2023-04-20T04:18:43;102256.99;;;7.83;65.83
46682;BME280;34101;53.430;-2.224;2023-04-20T04:21:11;102253.98;;;7.87;65.28
46682;BME280;34101;53.430;-2.224;2023-04-20T04:23:38;102255.78;;;7.79;65.81
46682;BME280;34101;53.430;-2.224;2023-04-20T04:26:06;102254.07;;;7.81;65.51
46682;BME280;34101;53.430;-2.224;2023-04-20T04:28:33;102255.26;;;7.81;65.31
46682;BME280;34101;53.430;-2.224;2023-04-20T04:31:00;102259.05;;;7.73;65.33
46682;BME280;34101;53.430;-2.224;2023-04-20T04:33:28;102256.49;;;7.78;65.13
46682;BME280;34101;53.430;-2.224;2023-04-20T04:35:55;102257.13;;;7.78;65.01
46682;BME280;34101;53.430;-2.224;2023-04-20T04:38:23;102258.82;;;7.78;65.05
46682;BME280;34101;53.430;-2.224;2023-04-20T04:40:50;102261.48;;;7.77;65.27
46682;BME280;34101;53.430;-2.224;2023-04-20T04:43:18;102262.08;;;7.80;65.08
46682;BME280;34101;53.430;-2.224;2023-04-20T04:45:46;102261.35;;;7.79;64.93
46682;BME280;34101;53.430;-2.224;2023-04-20T04:48:13;102258.42;;;7.78;65.08
46682;BME280;34101;53.430;-2.224;2023-04-20T04:50:40;102254.88;;;7.71;65.40
46682;BME280;34101;53.430;-2.224;2023-04-20T04:53:07;102255.99;;;7.73;65.61
46682;BME280;34101;53.430;-2.224;2023-04-20T04:55:35;102255.53;;;7.71;65.81
46682;BME280;34101;53.430;-2.224;2023-04-20T04:58:01;102261.54;;;7.76;65.65
46682;BME280;34101;53.430;-2.224;2023-04-20T05:00:29;102264.03;;;7.76;65.69
46682;BME280;34101;53.430;-2.224;2023-04-20T05:02:58;102261.84;;;7.69;65.91
46682;BME280;34101;53.430;-2.224;2023-04-20T05:05:25;102263.94;;;7.73;65.89
46682;BME280;34101;53.430;-2.224;2023-04-20T05:07:52;102264.15;;;7.69;66.14
46682;BME280;34101;53.430;-2.224;2023-04-20T05:10:20;102267.12;;;7.73;66.12
46682;BME280;34101;53.430;-2.224;2023-04-20T05:12:48;102270.79;;;7.73;66.20
46682;BME280;34101;53.430;-2.224;2023-04-20T05:15:15;102274.41;;;7.69;66.37
46682;BME280;34101;53.430;-2.224;2023-04-20T05:17:42;102272.16;;;7.75;66.16
46682;BME280;34101;53.430;-2.224;2023-04-20T05:20:09;102271.61;;;7.65;66.73
46682;BME280;34101;53.430;-2.224;2023-04-20T05:22:37;102272.94;;;7.72;66.63
46682;BME280;34101;53.430;-2.224;2023-04-20T05:25:05;102277.03;;;7.70;66.73
46682;BME280;34101;53.430;-2.224;2023-04-20T05:27:32;102276.51;;;7.77;66.68
46682;BME280;34101;53.430;-2.224;2023-04-20T05:29:59;102280.38;;;7.79;66.60
46682;BME280;34101;53.430;-2.224;2023-04-20T05:32:27;102276.25;;;7.78;66.65
46682;BME280;34101;53.430;-2.224;2023-04-20T05:34:54;102281.33;;;7.81;66.90
46682;BME280;34101;53.430;-2.224;2023-04-20T05:37:21;102283.59;;;7.80;66.98
46682;BME280;34101;53.430;-2.224;2023-04-20T05:39:48;102290.16;;;7.85;66.88
46682;BME280;34101;53.430;-2.224;2023-04-20T05:42:16;102295.43;;;7.86;66.76
46682;BME280;34101;53.430;-2.224;2023-04-20T05:44:43;102291.83;;;7.85;67.12
46682;BME280;34101;53.430;-2.224;2023-04-20T05:47:10;102298.11;;;7.86;67.11
46682;BME280;34101;53.430;-2.224;2023-04-20T05:49:37;102302.40;;;7.92;67.04
46682;BME280;34101;53.430;-2.224;2023-04-20T05:52:04;102304.26;;;7.91;66.97
46682;BME280;34101;53.430;-2.224;2023-04-20T05:54:31;102306.03;;;7.98;66.99
46682;BME280;34101;53.430;-2.224;2023-04-20T05:56:59;102307.76;;;8.02;66.78
46682;BME280;34101;53.430;-2.224;2023-04-20T05:59:31;102305.23;;;8.02;66.94
46682;BME280;34101;53.430;-2.224;2023-04-20T06:01:58;102308.32;;;8.08;66.72
46682;BME280;34101;53.430;-2.224;2023-04-20T06:04:26;102303.48;;;8.19;66.36
46682;BME280;34101;53.430;-2.224;2023-04-20T06:06:53;102299.25;;;8.22;66.66
46682;BME280;34101;53.430;-2.224;2023-04-20T06:09:20;102304.33;;;8.30;66.64
46682;BME280;34101;53.430;-2.224;2023-04-20T06:11:48;102304.80;;;8.28;66.11
46682;BME280;34101;53.430;-2.224;2023-04-20T06:14:14;102303.66;;;8.30;66.32
46682;BME280;34101;53.430;-2.224;2023-04-20T06:16:42;102304.27;;;8.39;66.32
46682;BME280;34101;53.430;-2.224;2023-04-20T06:19:09;102302.23;;;8.45;66.04
46682;BME280;34101;53.430;-2.224;2023-04-20T06:21:37;102299.00;;;8.53;65.80
46682;BME280;34101;53.430;-2.224;2023-04-20T06:24:04;102301.77;;;8.57;65.81
46682;BME280;34101;53.430;-2.224;2023-04-20T06:26:32;102300.76;;;8.46;65.95
46682;BME280;34101;53.430;-2.224;2023-04-20T06:28:59;102299.48;;;8.65;65.38
46682;BME280;34101;53.430;-2.224;2023-04-20T06:31:27;102296.41;;;8.70;65.18
46682;BME280;34101;53.430;-2.224;2023-04-20T06:33:54;102300.32;;;8.76;65.05
46682;BME280;34101;53.430;-2.224;2023-04-20T06:36:22;102301.37;;;8.79;64.89
46682;BME280;34101;53.430;-2.224;2023-04-20T06:38:49;102305.20;;;8.93;64.75
46682;BME280;34101;53.430;-2.224;2023-04-20T06:41:17;102300.98;;;9.00;64.40
46682;BME280;34101;53.430;-2.224;2023-04-20T06:43:44;102305.90;;;9.04;64.08
46682;BME280;34101;53.430;-2.224;2023-04-20T06:46:12;102303.43;;;9.15;64.16
46682;BME280;34101;53.430;-2.224;2023-04-20T06:48:40;102303.89;;;9.27;63.75
46682;BME280;34101;53.430;-2.224;2023-04-20T06:51:07;102303.42;;;9.32;63.46
46682;BME280;34101;53.430;-2.224;2023-04-20T06:53:35;102306.50;;;9.40;63.21
46682;BME280;34101;53.430;-2.224;2023-04-20T06:56:02;102310.15;;;9.47;62.98
46682;BME280;34101;53.430;-2.224;2023-04-20T06:58:30;102304.33;;;9.54;62.80
46682;BME280;34101;53.430;-2.224;2023-04-20T07:00:57;102300.51;;;9.60;62.18
46682;BME280;34101;53.430;-2.224;2023-04-20T07:03:25;102301.75;;;9.64;61.69
46682;BME280;34101;53.430;-2.224;2023-04-20T07:05:52;102303.18;;;9.65;61.27
46682;BME280;34101;53.430;-2.224;2023-04-20T07:08:20;102301.47;;;9.76;61.55
46682;BME280;34101;53.430;-2.224;2023-04-20T07:10:47;102302.96;;;9.85;60.95
46682;BME280;34101;53.430;-2.224;2023-04-20T07:13:15;102301.68;;;9.90;60.27
46682;BME280;34101;53.430;-2.224;2023-04-20T07:15:44;102302.10;;;9.99;60.00
46682;BME280;34101;53.430;-2.224;2023-04-20T07:18:11;102301.45;;;10.06;59.35
46682;BME280;34101;53.430;-2.224;2023-04-20T07:20:39;102299.19;;;10.17;58.94
46682;BME280;34101;53.430;-2.224;2023-04-20T07:23:05;102295.58;;;10.25;58.92
46682;BME280;34101;53.430;-2.224;2023-04-20T07:25:33;102289.51;;;10.38;58.36
46682;BME280;34101;53.430;-2.224;2023-04-20T07:28:00;102291.10;;;10.47;58.53
46682;BME280;34101;53.430;-2.224;2023-04-20T07:30:28;102287.79;;;10.48;58.02
46682;BME280;34101;53.430;-2.224;2023-04-20T07:32:55;102285.41;;;10.58;57.53
46682;BME280;34101;53.430;-2.224;2023-04-20T07:35:23;102285.79;;;10.59;57.32
46682;BME280;34101;53.430;-2.224;2023-04-20T07:37:50;102280.50;;;10.68;57.05
46682;BME280;34101;53.430;-2.224;2023-04-20T07:40:17;102283.29;;;10.67;56.44
46682;BME280;34101;53.430;-2.224;2023-04-20T07:42:45;102280.94;;;10.78;56.56
46682;BME280;34101;53.430;-2.224;2023-04-20T07:45:13;102281.26;;;10.92;55.81
46682;BME280;34101;53.430;-2.224;2023-04-20T07:47:40;102279.40;;;11.00;55.97
46682;BME280;34101;53.430;-2.224;2023-04-20T07:50:08;102283.88;;;11.01;55.77
46682;BME280;34101;53.430;-2.224;2023-04-20T07:52:35;102274.77;;;11.18;55.37
46682;BME280;34101;53.430;-2.224;2023-04-20T07:55:03;102276.44;;;11.37;54.92
46682;BME280;34101;53.430;-2.224;2023-04-20T07:57:30;102278.07;;;11.51;54.39
46682;BME280;34101;53.430;-2.224;2023-04-20T07:59:57;102272.94;;;11.60;54.12
46682;BME280;34101;53.430;-2.224;2023-04-20T08:02:25;102271.60;;;11.82;53.92
46682;BME280;34101;53.430;-2.224;2023-04-20T08:04:52;102270.22;;;11.88;52.86
46682;BME280;34101;53.430;-2.224;2023-04-20T08:07:20;102268.17;;;12.11;53.24
46682;BME280;34101;53.430;-2.224;2023-04-20T08:09:47;102266.95;;;12.23;52.12
46682;BME280;34101;53.430;-2.224;2023-04-20T08:12:14;102267.16;;;12.44;51.63
46682;BME280;34101;53.430;-2.224;2023-04-20T08:14:42;102260.07;;;12.63;50.41
46682;BME280;34101;53.430;-2.224;2023-04-20T08:17:09;102256.32;;;13.01;49.35
46682;BME280;34101;53.430;-2.224;2023-04-20T08:19:37;102252.78;;;13.94;47.38
46682;BME280;34101;53.430;-2.224;2023-04-20T08:22:04;102255.21;;;14.73;44.61
46682;BME280;34101;53.430;-2.224;2023-04-20T08:24:32;102251.90;;;15.53;41.77
46682;BME280;34101;53.430;-2.224;2023-04-20T08:26:59;102255.00;;;16.11;40.69
46682;BME280;34101;53.430;-2.224;2023-04-20T08:29:27;102256.92;;;16.64;39.73
46682;BME280;34101;53.430;-2.224;2023-04-20T08:31:54;102258.70;;;17.28;38.47
46682;BME280;34101;53.430;-2.224;2023-04-20T08:34:21;102255.10;;;17.90;36.71
46682;BME280;34101;53.430;-2.224;2023-04-20T08:36:49;102256.05;;;18.40;36.22
46682;BME280;34101;53.430;-2.224;2023-04-20T08:39:18;102257.32;;;18.82;33.78
46682;BME280;34101;53.430;-2.224;2023-04-20T08:41:47;102256.81;;;19.28;33.25
46682;BME280;34101;53.430;-2.224;2023-04-20T08:44:15;102256.24;;;19.73;32.96
46682;BME280;34101;53.430;-2.224;2023-04-20T08:46:45;102256.28;;;19.97;31.71
46682;BME280;34101;53.430;-2.224;2023-04-20T08:49:15;102258.07;;;19.86;31.35
46682;BME280;34101;53.430;-2.224;2023-04-20T08:51:43;102250.96;;;19.69;31.47
46682;BME280;34101;53.430;-2.224;2023-04-20T08:54:11;102251.90;;;19.48;30.91
46682;BME280;34101;53.430;-2.224;2023-04-20T08:56:40;102250.63;;;19.68;31.33
46682;BME280;34101;53.430;-2.224;2023-04-20T08:59:08;102250.16;;;20.25;30.26
46682;BME280;34101;53.430;-2.224;2023-04-20T09:01:41;102245.95;;;20.48;29.83
46682;BME280;34101;53.430;-2.224;2023-04-20T09:04:18;102245.70;;;20.83;29.49
46682;BME280;34101;53.430;-2.224;2023-04-20T09:06:46;102241.68;;;20.20;29.35
46682;BME280;34101;53.430;-2.224;2023-04-20T09:09:13;102242.62;;;19.97;30.20
46682;BME280;34101;53.430;-2.224;2023-04-20T09:11:41;102240.05;;;20.44;29.70
46682;BME280;34101;53.430;-2.224;2023-04-20T09:14:09;102242.05;;;20.90;28.95
46682;BME280;34101;53.430;-2.224;2023-04-20T09:16:37;102236.67;;;21.27;28.10
46682;BME280;34101;53.430;-2.224;2023-04-20T09:19:04;102230.82;;;21.77;27.99
46682;BME280;34101;53.430;-2.224;2023-04-20T09:21:31;102222.81;;;22.29;26.91
46682;BME280;34101;53.430;-2.224;2023-04-20T09:24:00;102224.82;;;21.77;26.32
46682;BME280;34101;53.430;-2.224;2023-04-20T09:26:31;102223.11;;;21.38;26.60
46682;BME280;34101;53.430;-2.224;2023-04-20T09:28:59;102212.92;;;21.56;26.07
46682;BME280;34101;53.430;-2.224;2023-04-20T09:31:27;102219.92;;;21.51;25.74
46682;BME280;34101;53.430;-2.224;2023-04-20T09:33:56;102212.78;;;20.92;26.02
46682;BME280;34101;53.430;-2.224;2023-04-20T09:36:23;102211.27;;;19.85;27.22
46682;BME280;34101;53.430;-2.224;2023-04-20T09:39:01;102208.24;;;20.16;28.22
46682;BME280;34101;53.430;-2.224;2023-04-20T09:41:28;102204.28;;;20.80;26.29
46682;BME280;34101;53.430;-2.224;2023-04-20T09:43:56;102197.32;;;21.04;25.13
46682;BME280;34101;53.430;-2.224;2023-04-20T09:46:28;102198.80;;;21.00;24.44
46682;BME280;34101;53.430;-2.224;2023-04-20T09:48:56;102197.89;;;21.25;24.80
46682;BME280;34101;53.430;-2.224;2023-04-20T09:51:25;102192.08;;;21.29;25.06
46682;BME280;34101;53.430;-2.224;2023-04-20T09:53:53;102183.08;;;21.51;24.41
46682;BME280;34101;53.430;-2.224;2023-04-20T09:56:21;102187.07;;;21.62;24.38
46682;BME280;34101;53.430;-2.224;2023-04-20T09:58:49;102186.66;;;21.27;23.26
46682;BME280;34101;53.430;-2.224;2023-04-20T10:01:17;102182.15;;;21.44;24.03
46682;BME280;34101;53.430;-2.224;2023-04-20T10:03:44;102172.55;;;22.00;23.04
46682;BME280;34101;53.430;-2.224;2023-04-20T10:06:18;102174.55;;;21.55;23.29
46682;BME280;34101;53.430;-2.224;2023-04-20T10:08:46;102175.73;;;21.91;23.25
46682;BME280;34101;53.430;-2.224;2023-04-20T10:11:24;102169.70;;;21.89;23.11
46682;BME280;34101;53.430;-2.224;2023-04-20T10:13:51;102170.49;;;22.24;23.08
46682;BME280;34101;53.430;-2.224;2023-04-20T10:16:19;102164.01;;;22.03;22.14
46682;BME280;34101;53.430;-2.224;2023-04-20T10:18:56;102169.93;;;21.62;22.55
46682;BME280;34101;53.430;-2.224;2023-04-20T10:21:24;102163.28;;;21.86;22.23
46682;BME280;34101;53.430;-2.224;2023-04-20T10:23:51;102156.60;;;22.38;22.58
46682;BME280;34101;53.430;-2.224;2023-04-20T10:26:19;102156.01;;;22.89;21.89
46682;BME280;34101;53.430;-2.224;2023-04-20T10:28:46;102145.91;;;23.17;21.99
46682;BME280;34101;53.430;-2.224;2023-04-20T10:31:14;102146.32;;;23.24;21.49
46682;BME280;34101;53.430;-2.224;2023-04-20T10:33:56;102146.53;;;22.95;21.88
46682;BME280;34101;53.430;-2.224;2023-04-20T10:36:27;102148.84;;;22.71;22.41
46682;BME280;34101;53.430;-2.224;2023-04-20T10:38:55;102140.86;;;23.35;21.54
46682;BME280;34101;53.430;-2.224;2023-04-20T10:41:22;102140.86;;;24.07;20.93
46682;BME280;34101;53.430;-2.224;2023-04-20T10:43:50;102140.33;;;24.26;20.19
46682;BME280;34101;53.430;-2.224;2023-04-20T10:46:19;102140.09;;;24.03;19.85
46682;BME280;34101;53.430;-2.224;2023-04-20T10:48:51;102144.30;;;23.60;19.10
46682;BME280;34101;53.430;-2.224;2023-04-20T10:51:19;102144.68;;;23.45;19.46
46682;BME280;34101;53.430;-2.224;2023-04-20T10:53:57;102141.45;;;23.11;19.98
46682;BME280;34101;53.430;-2.224;2023-04-20T10:56:25;102139.06;;;23.32;20.50
46682;BME280;34101;53.430;-2.224;2023-04-20T10:58:52;102134.23;;;22.98;21.34
46682;BME280;34101;53.430;-2.224;2023-04-20T11:01:20;102126.89;;;23.13;21.21
46682;BME280;34101;53.430;-2.224;2023-04-20T11:03:49;102126.46;;;23.11;21.59
46682;BME280;34101;53.430;-2.224;2023-04-20T11:06:16;102126.15;;;23.24;21.57
46682;BME280;34101;53.430;-2.224;2023-04-20T11:08:49;102123.76;;;22.78;21.56
46682;BME280;34101;53.430;-2.224;2023-04-20T11:11:19;102121.90;;;22.52;21.84
46682;BME280;34101;53.430;-2.224;2023-04-20T11:13:47;102122.78;;;21.85;22.87
46682;BME280;34101;53.430;-2.224;2023-04-20T11:16:15;102128.09;;;21.48;23.09
46682;BME280;34101;53.430;-2.224;2023-04-20T11:18:51;102115.59;;;22.05;23.32
46682;BME280;34101;53.430;-2.224;2023-04-20T11:21:20;102117.27;;;22.46;23.33
46682;BME280;34101;53.430;-2.224;2023-04-20T11:23:48;102115.75;;;23.18;23.04
46682;BME280;34101;53.430;-2.224;2023-04-20T11:26:15;102109.41;;;23.13;22.38
46682;BME280;34101;53.430;-2.224;2023-04-20T11:28:52;102105.65;;;23.50;22.15
46682;BME280;34101;53.430;-2.224;2023-04-20T11:31:20;102104.99;;;23.51;22.24
46682;BME280;34101;53.430;-2.224;2023-04-20T11:33:47;102102.05;;;23.88;21.97
46682;BME280;34101;53.430;-2.224;2023-04-20T11:36:19;102089.06;;;24.37;21.47
46682;BME280;34101;53.430;-2.224;2023-04-20T11:38:47;102083.47;;;24.56;21.51
46682;BME280;34101;53.430;-2.224;2023-04-20T11:41:15;102093.99;;;23.73;21.84
46682;BME280;34101;53.430;-2.224;2023-04-20T11:43:43;102094.38;;;22.85;23.35
46682;BME280;34101;53.430;-2.224;2023-04-20T11:46:14;102086.18;;;22.81;22.79
46682;BME280;34101;53.430;-2.224;2023-04-20T11:48:42;102081.94;;;22.83;23.21
46682;BME280;34101;53.430;-2.224;2023-04-20T11:51:09;102084.55;;;22.94;22.97
46682;BME280;34101;53.430;-2.224;2023-04-20T11:53:36;102074.72;;;22.66;23.03
46682;BME280;34101;53.430;-2.224;2023-04-20T11:56:04;102076.89;;;22.45;23.53
46682;BME280;34101;53.430;-2.224;2023-04-20T11:58:32;102074.97;;;22.26;23.26
46682;BME280;34101;53.430;-2.224;2023-04-20T12:00:59;102073.29;;;22.18;23.63
46682;BME280;34101;53.430;-2.224;2023-04-20T12:03:27;102066.21;;;22.40;23.48
46682;BME280;34101;53.430;-2.224;2023-04-20T12:05:54;102056.85;;;22.49;23.08
46682;BME280;34101;53.430;-2.224;2023-04-20T12:08:23;102061.57;;;22.58;23.19
46682;BME280;34101;53.430;-2.224;2023-04-20T12:10:50;102060.82;;;22.71;22.22
46682;BME280;34101;53.430;-2.224;2023-04-20T12:13:18;102055.79;;;22.60;22.69
46682;BME280;34101;53.430;-2.224;2023-04-20T12:15:45;102055.32;;;23.04;22.48
46682;BME280;34101;53.430;-2.224;2023-04-20T12:18:13;102054.84;;;23.15;21.71
46682;BME280;34101;53.430;-2.224;2023-04-20T12:20:40;102044.67;;;22.77;21.95
46682;BME280;34101;53.430;-2.224;2023-04-20T12:23:07;102047.50;;;22.47;23.43
46682;BME280;34101;53.430;-2.224;2023-04-20T12:25:35;102044.99;;;21.88;23.17
46682;BME280;34101;53.430;-2.224;2023-04-20T12:28:02;102041.74;;;22.03;23.28
46682;BME280;34101;53.430;-2.224;2023-04-20T12:30:30;102033.59;;;21.85;23.14
46682;BME280;34101;53.430;-2.224;2023-04-20T12:32:57;102031.81;;;21.60;23.26
46682;BME280;34101;53.430;-2.224;2023-04-20T12:35:24;102031.78;;;21.54;22.96
46682;BME280;34101;53.430;-2.224;2023-04-20T12:37:52;102022.55;;;21.28;23.50
46682;BME280;34101;53.430;-2.224;2023-04-20T12:40:20;102020.69;;;21.42;23.25
46682;BME280;34101;53.430;-2.224;2023-04-20T12:42:47;102022.21;;;21.76;22.95
46682;BME280;34101;53.430;-2.224;2023-04-20T12:45:14;102020.72;;;22.09;22.44
46682;BME280;34101;53.430;-2.224;2023-04-20T12:47:42;102018.12;;;22.40;22.08
46682;BME280;34101;53.430;-2.224;2023-04-20T12:50:10;102012.26;;;22.37;21.81